sensor_id;sensor_type;location;lat;lon;timestamp;temperature;humidity
42201;DHT22;27869;51.442;7.540;2023-02-22T00:00:11;8.00;99.90
42201;DHT22;27869;51.442;7.540;2023-02-22T00:02:45;7.90;99.90
42201;DHT22;27869;51.442;7.540;2023-02-22T00:05:14;8.00;99.90
42201;DHT22;27869;51.442;7.540;2023-02-22T00:07:46;7.90;99.90
42201;DHT22;27869;51.442;7.540;2023-02-22T00:10:14;7.90;99.90
42201;DHT22;27869;51.442;7.540;2023-02-22T00:12:46;7.90;99.90
42201;DHT22;27869;51.442;7.540;2023-02-22T00:15:15;7.90;99.90
42201;DHT22;27869;51.442;7.540;2023-02-22T00:17:42;7.90;99.90
42201;DHT22;27869;51.442;7.540;2023-02-22T00:20:10;7.90;99.90
42201;DHT22;27869;51.442;7.540;2023-02-22T00:22:40;7.90;99.90
42201;DHT22;27869;51.442;7.540;2023-02-22T00:25:08;7.90;99.90
42201;DHT22;27869;51.442;7.540;2023-02-22T00:27:35;7.90;99.90
42201;DHT22;27869;51.442;7.540;2023-02-22T00:30:03;7.90;99.90
42201;DHT22;27869;51.442;7.540;2023-02-22T00:32:30;7.90;99.90
42201;DHT22;27869;51.442;7.540;2023-02-22T00:34:57;7.90;99.90
42201;DHT22;27869;51.442;7.540;2023-02-22T00:37:24;7.90;99.90
42201;DHT22;27869;51.442;7.540;2023-02-22T00:39:52;7.90;99.90
42201;DHT22;27869;51.442;7.540;2023-02-22T00:42:19;7.80;99.90
42201;DHT22;27869;51.442;7.540;2023-02-22T00:44:46;7.80;99.90
42201;DHT22;27869;51.442;7.540;2023-02-22T00:47:13;7.80;99.90
42201;DHT22;27869;51.442;7.540;2023-02-22T00:49:40;7.80;99.90
42201;DHT22;27869;51.442;7.540;2023-02-22T00:52:07;7.80;99.90
42201;DHT22;27869;51.442;7.540;2023-02-22T00:54:35;7.80;99.90
42201;DHT22;27869;51.442;7.540;2023-02-22T00:57:03;7.80;99.90
42201;DHT22;27869;51.442;7.540;2023-02-22T00:59:30;7.80;99.90
42201;DHT22;27869;51.442;7.540;2023-02-22T01:01:57;7.80;99.90
42201;DHT22;27869;51.442;7.540;2023-02-22T01:04:24;7.70;99.90
42201;DHT22;27869;51.442;7.540;2023-02-22T01:06:51;7.70;99.90
42201;DHT22;27869;51.442;7.540;2023-02-22T01:09:18;7.70;99.90
42201;DHT22;27869;51.442;7.540;2023-02-22T01:11:46;7.70;99.90
42201;DHT22;27869;51.442;7.540;2023-02-22T01:14:14;7.70;99.90
42201;DHT22;27869;51.442;7.540;2023-02-22T01:16:42;7.70;99.90
42201;DHT22;27869;51.442;7.540;2023-02-22T01:19:09;7.70;99.90
42201;DHT22;27869;51.442;7.540;2023-02-22T01:21:39;7.60;99.90
42201;DHT22;27869;51.442;7.540;2023-02-22T01:24:06;7.60;99.90
42201;DHT22;27869;51.442;7.540;2023-02-22T01:26:33;7.60;99.90
42201;DHT22;27869;51.442;7.540;2023-02-22T01:29:00;7.60;99.90
42201;DHT22;27869;51.442;7.540;2023-02-22T01:31:28;7.60;99.90
42201;DHT22;27869;51.442;7.540;2023-02-22T01:33:55;7.60;99.90
42201;DHT22;27869;51.442;7.540;2023-02-22T01:36:22;7.60;99.90
42201;DHT22;27869;51.442;7.540;2023-02-22T01:38:48;7.60;99.90
42201;DHT22;27869;51.442;7.540;2023-02-22T01:41:15;7.50;99.90
42201;DHT22;27869;51.442;7.540;2023-02-22T01:43:42;7.50;99.90
42201;DHT22;27869;51.442;7.540;2023-02-22T01:46:19;7.50;99.90
42201;DHT22;27869;51.442;7.540;2023-02-22T01:48:49;7.50;99.90
42201;DHT22;27869;51.442;7.540;2023-02-22T01:51:20;7.50;99.90
42201;DHT22;27869;51.442;7.540;2023-02-22T01:53:50;7.50;99.90
42201;DHT22;27869;51.442;7.540;2023-02-22T01:56:20;7.40;99.90
42201;DHT22;27869;51.442;7.540;2023-02-22T01:58:49;7.40;99.90
42201;DHT22;27869;51.442;7.540;2023-02-22T02:01:19;7.40;99.90
42201;DHT22;27869;51.442;7.540;2023-02-22T02:03:49;7.40;99.90
42201;DHT22;27869;51.442;7.540;2023-02-22T02:06:18;7.40;99.90
42201;DHT22;27869;51.442;7.540;2023-02-22T02:08:51;7.30;99.90
42201;DHT22;27869;51.442;7.540;2023-02-22T02:11:22;7.30;99.90
42201;DHT22;27869;51.442;7.540;2023-02-22T02:13:50;7.30;99.90
42201;DHT22;27869;51.442;7.540;2023-02-22T02:16:19;7.30;99.90
42201;DHT22;27869;51.442;7.540;2023-02-22T02:18:48;7.20;99.90
42201;DHT22;27869;51.442;7.540;2023-02-22T02:21:38;7.20;99.90
42201;DHT22;27869;51.442;7.540;2023-02-22T02:27:17;7.20;99.90
42201;DHT22;27869;51.442;7.540;2023-02-22T02:30:21;7.20;99.90
42201;DHT22;27869;51.442;7.540;2023-02-22T02:32:55;7.10;99.90
42201;DHT22;27869;51.442;7.540;2023-02-22T02:35:31;7.10;99.90
42201;DHT22;27869;51.442;7.540;2023-02-22T02:38:07;7.00;99.90
42201;DHT22;27869;51.442;7.540;2023-02-22T02:40:40;7.00;99.90
42201;DHT22;27869;51.442;7.540;2023-02-22T02:43:12;6.90;99.90
42201;DHT22;27869;51.442;7.540;2023-02-22T02:45:46;6.90;99.90
42201;DHT22;27869;51.442;7.540;2023-02-22T02:48:16;6.90;99.90
42201;DHT22;27869;51.442;7.540;2023-02-22T02:50:47;6.80;99.90
42201;DHT22;27869;51.442;7.540;2023-02-22T02:53:17;6.80;99.90
42201;DHT22;27869;51.442;7.540;2023-02-22T02:55:45;6.70;99.90
42201;DHT22;27869;51.442;7.540;2023-02-22T02:58:17;6.70;99.90
42201;DHT22;27869;51.442;7.540;2023-02-22T03:00:44;6.60;99.90
42201;DHT22;27869;51.442;7.540;2023-02-22T03:03:38;6.60;99.90
42201;DHT22;27869;51.442;7.540;2023-02-22T03:06:21;6.60;99.90
42201;DHT22;27869;51.442;7.540;2023-02-22T03:08:56;6.60;99.90
42201;DHT22;27869;51.442;7.540;2023-02-22T03:11:27;6.50;99.90
42201;DHT22;27869;51.442;7.540;2023-02-22T03:14:04;6.50;99.90
42201;DHT22;27869;51.442;7.540;2023-02-22T03:16:41;6.50;99.90
42201;DHT22;27869;51.442;7.540;2023-02-22T03:19:15;6.50;99.90
42201;DHT22;27869;51.442;7.540;2023-02-22T03:21:49;6.50;99.90
42201;DHT22;27869;51.442;7.540;2023-02-22T03:24:24;6.50;99.90
42201;DHT22;27869;51.442;7.540;2023-02-22T03:26:57;6.40;99.90
42201;DHT22;27869;51.442;7.540;2023-02-22T03:29:29;6.40;99.90
42201;DHT22;27869;51.442;7.540;2023-02-22T03:32:03;6.30;99.90
42201;DHT22;27869;51.442;7.540;2023-02-22T03:34:34;6.30;99.90
42201;DHT22;27869;51.442;7.540;2023-02-22T03:37:10;6.30;99.90
42201;DHT22;27869;51.442;7.540;2023-02-22T03:39:40;6.20;99.90
42201;DHT22;27869;51.442;7.540;2023-02-22T03:42:09;6.20;99.90
42201;DHT22;27869;51.442;7.540;2023-02-22T03:44:39;6.20;99.90
42201;DHT22;27869;51.442;7.540;2023-02-22T03:47:09;6.20;99.90
42201;DHT22;27869;51.442;7.540;2023-02-22T03:49:43;6.20;99.90
42201;DHT22;27869;51.442;7.540;2023-02-22T03:52:11;6.20;99.90
42201;DHT22;27869;51.442;7.540;2023-02-22T03:54:38;6.10;99.90
42201;DHT22;27869;51.442;7.540;2023-02-22T03:57:09;6.10;99.90
42201;DHT22;27869;51.442;7.540;2023-02-22T03:59:38;6.10;99.90
42201;DHT22;27869;51.442;7.540;2023-02-22T04:02:05;6.10;99.90
42201;DHT22;27869;51.442;7.540;2023-02-22T04:04:32;6.10;99.90
42201;DHT22;27869;51.442;7.540;2023-02-22T04:07:01;6.10;99.90
42201;DHT22;27869;51.442;7.540;2023-02-22T04:09:27;6.10;99.90
42201;DHT22;27869;51.442;7.540;2023-02-22T04:11:54;6.00;99.90
42201;DHT22;27869;51.442;7.540;2023-02-22T04:14:21;6.00;99.90
42201;DHT22;27869;51.442;7.540;2023-02-22T04:16:48;6.00;99.90
42201;DHT22;27869;51.442;7.540;2023-02-22T04:19:15;6.00;99.90
42201;DHT22;27869;51.442;7.540;2023-02-22T04:21:42;6.00;99.90
42201;DHT22;27869;51.442;7.540;2023-02-22T04:24:10;5.90;99.90
42201;DHT22;27869;51.442;7.540;2023-02-22T04:26:37;5.90;99.90
42201;DHT22;27869;51.442;7.540;2023-02-22T04:29:04;5.90;99.90
42201;DHT22;27869;51.442;7.540;2023-02-22T04:31:31;5.90;99.90
42201;DHT22;27869;51.442;7.540;2023-02-22T04:33:58;5.80;99.90
42201;DHT22;27869;51.442;7.540;2023-02-22T04:36:25;5.80;99.90
42201;DHT22;27869;51.442;7.540;2023-02-22T04:38:52;5.80;99.90
42201;DHT22;27869;51.442;7.540;2023-02-22T04:41:21;5.80;99.90
42201;DHT22;27869;51.442;7.540;2023-02-22T04:43:47;5.80;99.90
42201;DHT22;27869;51.442;7.540;2023-02-22T04:46:15;5.70;99.90
42201;DHT22;27869;51.442;7.540;2023-02-22T04:48:41;5.70;99.90
42201;DHT22;27869;51.442;7.540;2023-02-22T04:51:08;5.70;99.90
42201;DHT22;27869;51.442;7.540;2023-02-22T04:53:35;5.70;99.90
42201;DHT22;27869;51.442;7.540;2023-02-22T04:56:02;5.60;99.90
42201;DHT22;27869;51.442;7.540;2023-02-22T04:58:31;5.60;99.90
42201;DHT22;27869;51.442;7.540;2023-02-22T05:00:58;5.50;99.90
42201;DHT22;27869;51.442;7.540;2023-02-22T05:03:25;5.50;99.90
42201;DHT22;27869;51.442;7.540;2023-02-22T05:05:52;5.40;99.90
42201;DHT22;27869;51.442;7.540;2023-02-22T05:08:18;5.40;99.90
42201;DHT22;27869;51.442;7.540;2023-02-22T05:10:45;5.30;99.90
42201;DHT22;27869;51.442;7.540;2023-02-22T05:13:12;5.30;99.90
42201;DHT22;27869;51.442;7.540;2023-02-22T05:15:40;5.30;99.90
42201;DHT22;27869;51.442;7.540;2023-02-22T05:18:07;5.20;99.90
42201;DHT22;27869;51.442;7.540;2023-02-22T05:20:34;5.20;99.90
42201;DHT22;27869;51.442;7.540;2023-02-22T05:23:02;5.20;99.90
42201;DHT22;27869;51.442;7.540;2023-02-22T05:25:31;5.10;99.90
42201;DHT22;27869;51.442;7.540;2023-02-22T05:28:00;5.10;99.90
42201;DHT22;27869;51.442;7.540;2023-02-22T05:30:30;5.10;99.90
42201;DHT22;27869;51.442;7.540;2023-02-22T05:32:59;5.10;99.90
42201;DHT22;27869;51.442;7.540;2023-02-22T05:35:27;5.10;99.90
42201;DHT22;27869;51.442;7.540;2023-02-22T05:37:54;5.10;99.90
42201;DHT22;27869;51.442;7.540;2023-02-22T05:40:24;5.00;99.90
42201;DHT22;27869;51.442;7.540;2023-02-22T05:42:52;4.90;99.90
42201;DHT22;27869;51.442;7.540;2023-02-22T05:45:20;4.90;99.90
42201;DHT22;27869;51.442;7.540;2023-02-22T05:47:48;4.80;99.90
42201;DHT22;27869;51.442;7.540;2023-02-22T05:50:17;4.80;99.90
42201;DHT22;27869;51.442;7.540;2023-02-22T05:52:45;4.80;99.90
42201;DHT22;27869;51.442;7.540;2023-02-22T05:55:14;4.70;99.90
42201;DHT22;27869;51.442;7.540;2023-02-22T05:57:41;4.70;99.90
42201;DHT22;27869;51.442;7.540;2023-02-22T06:00:10;4.60;99.90
42201;DHT22;27869;51.442;7.540;2023-02-22T06:02:37;4.60;99.90
42201;DHT22;27869;51.442;7.540;2023-02-22T06:05:04;4.60;99.90
42201;DHT22;27869;51.442;7.540;2023-02-22T06:07:32;4.50;99.90
42201;DHT22;27869;51.442;7.540;2023-02-22T06:09:59;4.50;99.90
42201;DHT22;27869;51.442;7.540;2023-02-22T06:12:26;4.50;99.90
42201;DHT22;27869;51.442;7.540;2023-02-22T06:14:53;4.40;99.90
42201;DHT22;27869;51.442;7.540;2023-02-22T06:17:20;4.40;99.90
42201;DHT22;27869;51.442;7.540;2023-02-22T06:19:47;4.40;99.90
42201;DHT22;27869;51.442;7.540;2023-02-22T06:22:15;4.40;99.90
42201;DHT22;27869;51.442;7.540;2023-02-22T06:24:44;4.30;99.90
42201;DHT22;27869;51.442;7.540;2023-02-22T06:27:11;4.30;99.90
42201;DHT22;27869;51.442;7.540;2023-02-22T06:29:38;4.30;99.90
42201;DHT22;27869;51.442;7.540;2023-02-22T06:32:05;4.30;99.90
42201;DHT22;27869;51.442;7.540;2023-02-22T06:34:31;4.30;99.90
42201;DHT22;27869;51.442;7.540;2023-02-22T06:36:58;4.30;99.90
42201;DHT22;27869;51.442;7.540;2023-02-22T06:39:26;4.30;99.90
42201;DHT22;27869;51.442;7.540;2023-02-22T06:41:54;4.30;99.90
42201;DHT22;27869;51.442;7.540;2023-02-22T06:44:22;4.30;99.90
42201;DHT22;27869;51.442;7.540;2023-02-22T06:46:50;4.30;99.90
42201;DHT22;27869;51.442;7.540;2023-02-22T06:49:18;4.20;99.90
42201;DHT22;27869;51.442;7.540;2023-02-22T06:51:46;4.20;99.90
42201;DHT22;27869;51.442;7.540;2023-02-22T06:54:13;4.20;99.90
42201;DHT22;27869;51.442;7.540;2023-02-22T06:56:40;4.20;99.90
42201;DHT22;27869;51.442;7.540;2023-02-22T06:59:08;4.10;99.90
42201;DHT22;27869;51.442;7.540;2023-02-22T07:01:35;4.10;99.90
42201;DHT22;27869;51.442;7.540;2023-02-22T07:04:02;4.10;99.90
42201;DHT22;27869;51.442;7.540;2023-02-22T07:06:29;4.00;99.90
42201;DHT22;27869;51.442;7.540;2023-02-22T07:08:56;4.00;99.90
42201;DHT22;27869;51.442;7.540;2023-02-22T07:11:23;4.00;99.90
42201;DHT22;27869;51.442;7.540;2023-02-22T07:13:50;4.00;99.90
42201;DHT22;27869;51.442;7.540;2023-02-22T07:16:18;4.00;99.90
42201;DHT22;27869;51.442;7.540;2023-02-22T07:18:45;4.00;99.90
42201;DHT22;27869;51.442;7.540;2023-02-22T07:21:12;3.90;99.90
42201;DHT22;27869;51.442;7.540;2023-02-22T07:23:49;3.90;99.90
42201;DHT22;27869;51.442;7.540;2023-02-22T07:26:16;3.90;99.90
42201;DHT22;27869;51.442;7.540;2023-02-22T07:28:43;4.00;99.90
42201;DHT22;27869;51.442;7.540;2023-02-22T07:31:10;4.00;99.90
42201;DHT22;27869;51.442;7.540;2023-02-22T07:33:38;4.00;99.90
42201;DHT22;27869;51.442;7.540;2023-02-22T07:36:06;4.00;99.90
42201;DHT22;27869;51.442;7.540;2023-02-22T07:38:33;4.00;99.90
42201;DHT22;27869;51.442;7.540;2023-02-22T07:41:00;4.10;99.90
42201;DHT22;27869;51.442;7.540;2023-02-22T07:43:28;4.10;99.90
42201;DHT22;27869;51.442;7.540;2023-02-22T07:45:57;4.10;99.90
42201;DHT22;27869;51.442;7.540;2023-02-22T07:48:27;4.10;99.90
42201;DHT22;27869;51.442;7.540;2023-02-22T07:50:56;4.10;99.90
42201;DHT22;27869;51.442;7.540;2023-02-22T07:53:25;4.20;99.90
42201;DHT22;27869;51.442;7.540;2023-02-22T07:55:55;4.20;99.90
42201;DHT22;27869;51.442;7.540;2023-02-22T07:58:23;4.30;99.90
42201;DHT22;27869;51.442;7.540;2023-02-22T08:00:51;4.30;99.90
42201;DHT22;27869;51.442;7.540;2023-02-22T08:03:19;4.40;99.90
42201;DHT22;27869;51.442;7.540;2023-02-22T08:05:49;4.40;99.90
42201;DHT22;27869;51.442;7.540;2023-02-22T08:08:17;4.50;99.90
42201;DHT22;27869;51.442;7.540;2023-02-22T08:10:44;4.60;99.90
42201;DHT22;27869;51.442;7.540;2023-02-22T08:13:12;4.60;99.90
42201;DHT22;27869;51.442;7.540;2023-02-22T08:15:40;4.70;99.90
42201;DHT22;27869;51.442;7.540;2023-02-22T08:18:10;4.80;99.90
42201;DHT22;27869;51.442;7.540;2023-02-22T08:20:37;4.80;99.90
42201;DHT22;27869;51.442;7.540;2023-02-22T08:23:06;4.90;99.90
42201;DHT22;27869;51.442;7.540;2023-02-22T08:25:35;5.00;99.90
42201;DHT22;27869;51.442;7.540;2023-02-22T08:28:04;5.00;99.90
42201;DHT22;27869;51.442;7.540;2023-02-22T08:30:31;5.20;99.90
42201;DHT22;27869;51.442;7.540;2023-02-22T08:33:00;5.20;99.90
42201;DHT22;27869;51.442;7.540;2023-02-22T08:35:28;5.30;99.90
42201;DHT22;27869;51.442;7.540;2023-02-22T08:37:57;5.40;99.90
42201;DHT22;27869;51.442;7.540;2023-02-22T08:40:26;5.50;99.90
42201;DHT22;27869;51.442;7.540;2023-02-22T08:42:54;5.60;99.90
42201;DHT22;27869;51.442;7.540;2023-02-22T08:45:21;5.70;99.90
42201;DHT22;27869;51.442;7.540;2023-02-22T08:47:49;5.80;99.90
42201;DHT22;27869;51.442;7.540;2023-02-22T08:50:17;5.90;99.90
42201;DHT22;27869;51.442;7.540;2023-02-22T08:52:44;6.00;99.90
42201;DHT22;27869;51.442;7.540;2023-02-22T08:55:11;6.10;99.90
42201;DHT22;27869;51.442;7.540;2023-02-22T08:57:38;6.20;99.90
42201;DHT22;27869;51.442;7.540;2023-02-22T09:00:08;6.30;99.90
42201;DHT22;27869;51.442;7.540;2023-02-22T09:02:35;6.40;99.90
42201;DHT22;27869;51.442;7.540;2023-02-22T09:05:02;6.60;99.90
42201;DHT22;27869;51.442;7.540;2023-02-22T09:07:30;6.70;99.90
42201;DHT22;27869;51.442;7.540;2023-02-22T09:09:57;6.80;99.90
42201;DHT22;27869;51.442;7.540;2023-02-22T09:12:24;6.90;99.90
42201;DHT22;27869;51.442;7.540;2023-02-22T09:14:51;7.00;99.90
42201;DHT22;27869;51.442;7.540;2023-02-22T09:17:19;7.10;99.90
42201;DHT22;27869;51.442;7.540;2023-02-22T09:19:46;7.20;99.90
42201;DHT22;27869;51.442;7.540;2023-02-22T09:22:12;7.30;99.90
42201;DHT22;27869;51.442;7.540;2023-02-22T09:24:39;7.40;99.90
42201;DHT22;27869;51.442;7.540;2023-02-22T09:27:07;7.50;99.90
42201;DHT22;27869;51.442;7.540;2023-02-22T09:29:37;7.70;99.90
42201;DHT22;27869;51.442;7.540;2023-02-22T09:32:04;7.70;99.90
42201;DHT22;27869;51.442;7.540;2023-02-22T09:34:32;7.90;99.90
42201;DHT22;27869;51.442;7.540;2023-02-22T09:37:00;8.00;99.90
42201;DHT22;27869;51.442;7.540;2023-02-22T09:39:29;8.10;99.90
42201;DHT22;27869;51.442;7.540;2023-02-22T09:42:05;8.20;99.90
42201;DHT22;27869;51.442;7.540;2023-02-22T09:44:37;8.30;99.90
42201;DHT22;27869;51.442;7.540;2023-02-22T09:47:17;8.40;99.90
42201;DHT22;27869;51.442;7.540;2023-02-22T09:49:53;8.60;99.90
42201;DHT22;27869;51.442;7.540;2023-02-22T09:52:25;8.70;99.90
42201;DHT22;27869;51.442;7.540;2023-02-22T09:54:59;8.80;99.90
42201;DHT22;27869;51.442;7.540;2023-02-22T09:57:33;9.00;99.90
42201;DHT22;27869;51.442;7.540;2023-02-22T10:00:06;9.10;99.90
42201;DHT22;27869;51.442;7.540;2023-02-22T10:02:45;9.20;99.90
42201;DHT22;27869;51.442;7.540;2023-02-22T10:05:20;9.30;99.90
42201;DHT22;27869;51.442;7.540;2023-02-22T10:07:54;9.40;99.90
42201;DHT22;27869;51.442;7.540;2023-02-22T10:10:27;9.50;99.90
42201;DHT22;27869;51.442;7.540;2023-02-22T10:13:02;9.60;99.90
42201;DHT22;27869;51.442;7.540;2023-02-22T10:15:43;9.70;99.90
42201;DHT22;27869;51.442;7.540;2023-02-22T10:21:06;10.00;99.90
42201;DHT22;27869;51.442;7.540;2023-02-22T10:23:43;10.10;99.90
42201;DHT22;27869;51.442;7.540;2023-02-22T10:26:14;10.20;99.90
42201;DHT22;27869;51.442;7.540;2023-02-22T10:28:48;10.30;99.90
42201;DHT22;27869;51.442;7.540;2023-02-22T10:31:22;10.40;99.90
42201;DHT22;27869;51.442;7.540;2023-02-22T10:33:56;10.50;99.90
42201;DHT22;27869;51.442;7.540;2023-02-22T10:36:26;10.60;99.90
42201;DHT22;27869;51.442;7.540;2023-02-22T10:38:55;10.70;99.90
42201;DHT22;27869;51.442;7.540;2023-02-22T10:41:27;10.80;99.90
42201;DHT22;27869;51.442;7.540;2023-02-22T10:43:55;10.90;99.90
42201;DHT22;27869;51.442;7.540;2023-02-22T10:46:23;11.00;99.90
42201;DHT22;27869;51.442;7.540;2023-02-22T10:48:55;11.10;99.90
42201;DHT22;27869;51.442;7.540;2023-02-22T10:51:26;11.20;99.90
42201;DHT22;27869;51.442;7.540;2023-02-22T10:54:17;11.30;99.90
42201;DHT22;27869;51.442;7.540;2023-02-22T10:56:46;11.40;99.90
42201;DHT22;27869;51.442;7.540;2023-02-22T10:59:26;11.50;99.90
42201;DHT22;27869;51.442;7.540;2023-02-22T11:01:53;11.60;99.90
42201;DHT22;27869;51.442;7.540;2023-02-22T11:04:21;11.70;99.90
42201;DHT22;27869;51.442;7.540;2023-02-22T11:07:07;11.80;99.90
42201;DHT22;27869;51.442;7.540;2023-02-22T11:09:46;11.90;99.90
42201;DHT22;27869;51.442;7.540;2023-02-22T11:12:18;12.00;99.90
42201;DHT22;27869;51.442;7.540;2023-02-22T11:14:46;12.10;99.90
42201;DHT22;27869;51.442;7.540;2023-02-22T11:17:18;12.20;99.90
42201;DHT22;27869;51.442;7.540;2023-02-22T11:19:52;12.30;99.90
42201;DHT22;27869;51.442;7.540;2023-02-22T11:22:25;12.40;99.90
42201;DHT22;27869;51.442;7.540;2023-02-22T11:27:46;12.60;99.90
42201;DHT22;27869;51.442;7.540;2023-02-22T11:30:21;12.70;99.90
42201;DHT22;27869;51.442;7.540;2023-02-22T11:32:54;12.80;99.90
42201;DHT22;27869;51.442;7.540;2023-02-22T11:35:34;12.90;99.90
42201;DHT22;27869;51.442;7.540;2023-02-22T11:38:15;13.00;99.90
42201;DHT22;27869;51.442;7.540;2023-02-22T11:40:43;13.10;99.90
42201;DHT22;27869;51.442;7.540;2023-02-22T11:43:15;13.10;99.90
42201;DHT22;27869;51.442;7.540;2023-02-22T11:45:57;13.20;99.90
42201;DHT22;27869;51.442;7.540;2023-02-22T11:48:29;13.20;99.90
42201;DHT22;27869;51.442;7.540;2023-02-22T11:51:05;13.30;99.90
42201;DHT22;27869;51.442;7.540;2023-02-22T11:53:52;13.30;99.90
42201;DHT22;27869;51.442;7.540;2023-02-22T11:56:24;13.40;99.90
42201;DHT22;27869;51.442;7.540;2023-02-22T11:58:55;13.50;99.90
42201;DHT22;27869;51.442;7.540;2023-02-22T12:01:28;13.50;99.90
42201;DHT22;27869;51.442;7.540;2023-02-22T12:04:20;13.50;99.90
42201;DHT22;27869;51.442;7.540;2023-02-22T12:06:59;13.60;99.90
42201;DHT22;27869;51.442;7.540;2023-02-22T12:09:36;13.60;99.90
42201;DHT22;27869;51.442;7.540;2023-02-22T12:12:12;13.70;99.90
42201;DHT22;27869;51.442;7.540;2023-02-22T12:14:46;13.70;99.90
42201;DHT22;27869;51.442;7.540;2023-02-22T12:17:35;13.80;99.90
42201;DHT22;27869;51.442;7.540;2023-02-22T12:20:11;13.80;99.90
42201;DHT22;27869;51.442;7.540;2023-02-22T12:22:52;13.90;99.90
42201;DHT22;27869;51.442;7.540;2023-02-22T12:25:24;13.90;99.90
42201;DHT22;27869;51.442;7.540;2023-02-22T12:27:54;14.00;99.90
42201;DHT22;27869;51.442;7.540;2023-02-22T12:30:25;14.00;99.90
42201;DHT22;27869;51.442;7.540;2023-02-22T12:32:54;14.00;99.90
42201;DHT22;27869;51.442;7.540;2023-02-22T12:35:25;14.10;99.90
42201;DHT22;27869;51.442;7.540;2023-02-22T12:38:00;14.10;99.90
42201;DHT22;27869;51.442;7.540;2023-02-22T12:40:34;14.20;99.90
42201;DHT22;27869;51.442;7.540;2023-02-22T12:43:09;14.20;99.90
42201;DHT22;27869;51.442;7.540;2023-02-22T12:45:45;14.20;99.90
42201;DHT22;27869;51.442;7.540;2023-02-22T12:48:29;14.20;99.90
42201;DHT22;27869;51.442;7.540;2023-02-22T12:51:01;14.30;99.90
42201;DHT22;27869;51.442;7.540;2023-02-22T12:53:32;14.30;99.90
42201;DHT22;27869;51.442;7.540;2023-02-22T12:56:11;14.30;99.90
42201;DHT22;27869;51.442;7.540;2023-02-22T12:58:47;14.40;99.90
42201;DHT22;27869;51.442;7.540;2023-02-22T13:01:17;14.40;99.90
42201;DHT22;27869;51.442;7.540;2023-02-22T13:03:45;14.40;99.90
42201;DHT22;27869;51.442;7.540;2023-02-22T13:06:27;14.40;99.90
42201;DHT22;27869;51.442;7.540;2023-02-22T13:09:14;14.50;99.90
42201;DHT22;27869;51.442;7.540;2023-02-22T13:11:51;14.50;99.90
42201;DHT22;27869;51.442;7.540;2023-02-22T13:14:37;14.50;99.90
42201;DHT22;27869;51.442;7.540;2023-02-22T13:17:10;14.60;99.90
42201;DHT22;27869;51.442;7.540;2023-02-22T13:19:48;14.60;99.90
42201;DHT22;27869;51.442;7.540;2023-02-22T13:22:21;14.70;99.90
42201;DHT22;27869;51.442;7.540;2023-02-22T13:24:59;14.70;99.90
42201;DHT22;27869;51.442;7.540;2023-02-22T13:27:34;14.70;99.90
42201;DHT22;27869;51.442;7.540;2023-02-22T13:30:03;14.70;99.90
42201;DHT22;27869;51.442;7.540;2023-02-22T13:32:41;14.70;99.90
42201;DHT22;27869;51.442;7.540;2023-02-22T13:35:26;14.80;99.90
42201;DHT22;27869;51.442;7.540;2023-02-22T13:44:18;14.70;99.90
42201;DHT22;27869;51.442;7.540;2023-02-22T13:47:23;14.80;99.90
42201;DHT22;27869;51.442;7.540;2023-02-22T13:53:12;14.80;99.90
42201;DHT22;27869;51.442;7.540;2023-02-22T13:55:40;14.80;99.90
42201;DHT22;27869;51.442;7.540;2023-02-22T13:58:12;14.80;99.90
42201;DHT22;27869;51.442;7.540;2023-02-22T14:00:50;14.80;99.90
42201;DHT22;27869;51.442;7.540;2023-02-22T14:03:30;14.80;99.90
42201;DHT22;27869;51.442;7.540;2023-02-22T14:06:01;14.80;99.90
42201;DHT22;27869;51.442;7.540;2023-02-22T14:08:45;14.80;99.90
42201;DHT22;27869;51.442;7.540;2023-02-22T14:11:39;14.80;99.90
42201;DHT22;27869;51.442;7.540;2023-02-22T14:14:15;14.80;99.90
42201;DHT22;27869;51.442;7.540;2023-02-22T14:20:21;14.80;99.90
42201;DHT22;27869;51.442;7.540;2023-02-22T14:22:55;14.80;99.90
42201;DHT22;27869;51.442;7.540;2023-02-22T14:25:39;14.70;99.90
42201;DHT22;27869;51.442;7.540;2023-02-22T14:28:31;14.70;99.90
42201;DHT22;27869;51.442;7.540;2023-02-22T14:31:04;14.70;99.90
42201;DHT22;27869;51.442;7.540;2023-02-22T14:33:56;14.70;99.90
42201;DHT22;27869;51.442;7.540;2023-02-22T14:36:26;14.70;99.90
42201;DHT22;27869;51.442;7.540;2023-02-22T14:38:59;14.70;99.90
42201;DHT22;27869;51.442;7.540;2023-02-22T14:41:29;14.70;99.90
42201;DHT22;27869;51.442;7.540;2023-02-22T14:43:59;14.70;99.90
42201;DHT22;27869;51.442;7.540;2023-02-22T14:46:32;14.60;99.90
42201;DHT22;27869;51.442;7.540;2023-02-22T14:49:09;14.70;99.90
42201;DHT22;27869;51.442;7.540;2023-02-22T14:51:49;14.60;99.90
42201;DHT22;27869;51.442;7.540;2023-02-22T14:54:24;14.60;99.90
42201;DHT22;27869;51.442;7.540;2023-02-22T14:56:58;14.60;99.90
42201;DHT22;27869;51.442;7.540;2023-02-22T14:59:46;14.60;99.90
42201;DHT22;27869;51.442;7.540;2023-02-22T15:02:18;14.60;99.90
42201;DHT22;27869;51.442;7.540;2023-02-22T15:04:53;14.60;99.90
42201;DHT22;27869;51.442;7.540;2023-02-22T15:07:24;14.60;99.90
42201;DHT22;27869;51.442;7.540;2023-02-22T15:12:55;14.60;99.90
42201;DHT22;27869;51.442;7.540;2023-02-22T15:15:34;14.60;99.90
42201;DHT22;27869;51.442;7.540;2023-02-22T15:18:01;14.60;99.90
42201;DHT22;27869;51.442;7.540;2023-02-22T15:20:34;14.60;99.90
42201;DHT22;27869;51.442;7.540;2023-02-22T15:23:03;14.50;99.90
42201;DHT22;27869;51.442;7.540;2023-02-22T15:25:30;14.50;99.90
42201;DHT22;27869;51.442;7.540;2023-02-22T15:28:01;14.50;99.90
42201;DHT22;27869;51.442;7.540;2023-02-22T15:30:31;14.50;99.90
42201;DHT22;27869;51.442;7.540;2023-02-22T15:33:14;14.40;99.90
42201;DHT22;27869;51.442;7.540;2023-02-22T15:35:43;14.40;99.90
42201;DHT22;27869;51.442;7.540;2023-02-22T15:38:19;14.40;99.90
42201;DHT22;27869;51.442;7.540;2023-02-22T15:40:57;14.40;99.90
42201;DHT22;27869;51.442;7.540;2023-02-22T15:43:24;14.40;99.90
42201;DHT22;27869;51.442;7.540;2023-02-22T15:45:53;14.40;99.90
42201;DHT22;27869;51.442;7.540;2023-02-22T15:48:20;14.40;99.90
42201;DHT22;27869;51.442;7.540;2023-02-22T15:51:01;14.40;99.90
42201;DHT22;27869;51.442;7.540;2023-02-22T15:53:39;14.40;99.90
42201;DHT22;27869;51.442;7.540;2023-02-22T15:56:11;14.40;99.90
42201;DHT22;27869;51.442;7.540;2023-02-22T15:58:39;14.40;99.90
42201;DHT22;27869;51.442;7.540;2023-02-22T16:01:08;14.40;99.90
42201;DHT22;27869;51.442;7.540;2023-02-22T16:03:38;14.30;99.90
42201;DHT22;27869;51.442;7.540;2023-02-22T16:06:13;14.30;99.90
42201;DHT22;27869;51.442;7.540;2023-02-22T16:08:43;14.30;99.90
42201;DHT22;27869;51.442;7.540;2023-02-22T16:11:19;14.20;99.90
42201;DHT22;27869;51.442;7.540;2023-02-22T16:13:52;14.20;99.90
42201;DHT22;27869;51.442;7.540;2023-02-22T16:16:21;14.20;99.90
42201;DHT22;27869;51.442;7.540;2023-02-22T16:18:50;14.10;99.90
42201;DHT22;27869;51.442;7.540;2023-02-22T16:21:20;14.10;99.90
42201;DHT22;27869;51.442;7.540;2023-02-22T16:23:49;14.00;99.90
42201;DHT22;27869;51.442;7.540;2023-02-22T16:26:23;14.00;99.90
42201;DHT22;27869;51.442;7.540;2023-02-22T16:28:51;14.00;99.90